createdAt,value
2023-04-11T00:02:27.536Z,71.78
2023-04-11T00:05:16.873Z,71.72
2023-04-11T00:08:10.571Z,71.60
2023-04-11T00:10:59.816Z,71.31
2023-04-11T00:13:48.958Z,71.37
2023-04-11T00:16:38.329Z,71.23
2023-04-11T00:19:28.327Z,71.19
2023-04-11T00:22:18.042Z,71.87
2023-04-11T00:25:09.894Z,71.53
2023-04-11T00:27:59.211Z,71.04
2023-04-11T00:30:48.611Z,70.88
2023-04-11T00:33:39.851Z,70.78
2023-04-11T00:36:30.189Z,70.66
2023-04-11T00:39:20.448Z,70.97
2023-04-11T00:42:11.132Z,71.43
2023-04-11T00:45:00.520Z,71.43
2023-04-11T00:47:50.793Z,71.95
2023-04-11T00:50:43.306Z,72.08
2023-04-11T00:53:33.623Z,71.93
2023-04-11T00:56:23.224Z,71.42
2023-04-11T00:59:14.363Z,70.98
2023-04-11T01:02:03.710Z,70.61
2023-04-11T01:04:53.416Z,70.67
2023-04-11T01:07:46.543Z,70.85
2023-04-11T01:10:36.551Z,70.41
2023-04-11T01:13:26.218Z,70.52
2023-04-11T01:16:21.472Z,70.27
2023-04-11T01:19:11.532Z,70.67
2023-04-11T01:22:02.830Z,71.04
2023-04-11T01:24:54.334Z,70.69
2023-04-11T01:27:43.597Z,71.51
2023-04-11T01:30:32.781Z,71.90
2023-04-11T01:33:22.313Z,71.52
2023-04-11T01:36:12.117Z,72.01
2023-04-11T01:39:01.579Z,71.71
2023-04-11T01:41:52.913Z,72.13
2023-04-11T01:44:42.747Z,71.84
2023-04-11T01:47:32.098Z,72.43
2023-04-11T01:50:21.377Z,72.85
2023-04-11T01:53:10.645Z,73.22
2023-04-11T01:56:00.007Z,73.52
2023-04-11T01:58:50.838Z,73.53
2023-04-11T02:01:40.720Z,73.26
2023-04-11T02:04:30.054Z,73.85
2023-04-11T02:07:20.866Z,73.49
2023-04-11T02:10:11.048Z,73.30
2023-04-11T02:13:00.363Z,73.78
2023-04-11T02:15:51.062Z,74.01
2023-04-11T02:18:41.238Z,73.97
2023-04-11T02:21:30.467Z,74.13
2023-04-11T02:24:20.215Z,74.03
2023-04-11T02:27:10.517Z,74.09
2023-04-11T02:30:00.251Z,73.38
2023-04-11T02:32:50.833Z,73.66
2023-04-11T02:35:40.206Z,73.51
2023-04-11T02:38:29.380Z,73.17
2023-04-11T02:41:21.401Z,73.18
2023-04-11T02:44:13.168Z,73.00
2023-04-11T02:47:04.207Z,73.38
2023-04-11T02:49:55.170Z,73.21
2023-04-11T02:52:50.450Z,73.73
2023-04-11T02:55:44.125Z,73.11
2023-04-11T02:58:33.416Z,73.11
2023-04-11T03:01:26.651Z,73.43
2023-04-11T03:04:17.604Z,73.92
2023-04-11T03:07:20.056Z,74.12
2023-04-11T03:10:10.526Z,74.38
2023-04-11T03:12:59.861Z,74.16
2023-04-11T03:15:49.234Z,74.01
2023-04-11T03:18:39.610Z,73.65
2023-04-11T03:21:32.511Z,73.63
2023-04-11T03:24:23.481Z,73.84
2023-04-11T03:27:13.592Z,73.46
2023-04-11T03:30:07.348Z,73.75
2023-04-11T03:33:08.408Z,73.63
2023-04-11T03:35:58.310Z,73.26
2023-04-11T03:38:47.540Z,72.94
2023-04-11T03:41:38.157Z,72.90
2023-04-11T03:44:31.411Z,73.15
2023-04-11T03:47:21.210Z,73.12
2023-04-11T03:50:12.336Z,72.65
2023-04-11T03:53:07.306Z,72.36
2023-04-11T03:55:57.141Z,72.05
2023-04-11T03:58:54.827Z,72.17
2023-04-11T04:01:47.898Z,72.34
2023-04-11T04:04:38.562Z,71.95
2023-04-11T04:07:42.303Z,71.61
2023-04-11T04:10:39.118Z,71.35
2023-04-11T04:13:29.170Z,71.63
2023-04-11T04:16:33.969Z,71.15
2023-04-11T04:19:27.039Z,70.89
2023-04-11T04:22:18.006Z,71.04
2023-04-11T04:25:15.932Z,71.01
2023-04-11T04:28:06.948Z,70.91
2023-04-11T04:31:02.480Z,71.31
2023-04-11T04:34:02.750Z,71.05
2023-04-11T04:36:56.522Z,71.45
2023-04-11T04:40:02.294Z,71.74
2023-04-11T04:42:58.656Z,71.86
2023-04-11T04:46:00.053Z,71.74
2023-04-11T04:48:56.062Z,71.65
2023-04-11T04:51:47.939Z,71.52
2023-04-11T04:54:37.551Z,71.61
2023-04-11T04:57:27.233Z,71.04
2023-04-11T05:03:08.985Z,70.73
2023-04-11T05:05:59.683Z,70.78
2023-04-11T05:08:50.902Z,70.73
2023-04-11T05:11:40.156Z,70.83
2023-04-11T05:14:31.382Z,70.43
2023-04-11T05:17:22.202Z,71.03
2023-04-11T05:20:15.607Z,70.95
2023-04-11T05:23:07.849Z,71.53
2023-04-11T05:25:58.652Z,71.46
2023-04-11T05:28:47.981Z,71.59
2023-04-11T05:31:40.820Z,71.69
2023-04-11T05:34:32.924Z,71.45
2023-04-11T05:37:22.732Z,71.51
2023-04-11T05:40:12.933Z,71.97
2023-04-11T05:43:03.716Z,71.90
2023-04-11T05:45:54.492Z,71.95
2023-04-11T05:48:44.130Z,71.56
2023-04-11T05:51:33.442Z,71.63
2023-04-11T05:54:34.427Z,71.52
2023-04-11T05:57:23.602Z,71.80
2023-04-11T06:00:17.044Z,71.63
2023-04-11T06:03:08.063Z,71.32
2023-04-11T06:05:57.811Z,70.88
2023-04-11T06:08:47.098Z,70.78
2023-04-11T06:11:40.882Z,70.83
2023-04-11T06:14:30.362Z,70.55
2023-04-11T06:17:21.307Z,70.52
2023-04-11T06:20:11.496Z,70.63
2023-04-11T06:23:01.679Z,70.75
2023-04-11T06:25:50.901Z,70.34
2023-04-11T06:28:40.165Z,70.57
2023-04-11T06:31:29.512Z,70.54
2023-04-11T06:34:21.987Z,71.04
2023-04-11T06:37:13.602Z,70.75
2023-04-11T06:40:09.264Z,71.42
2023-04-11T06:43:00.375Z,71.41
2023-04-11T06:45:50.130Z,71.67
2023-04-11T06:48:41.020Z,71.36
2023-04-11T06:51:34.040Z,70.79
2023-04-11T06:54:25.243Z,71.13
2023-04-11T06:57:14.477Z,71.04
2023-04-11T07:00:07.058Z,70.97
2023-04-11T07:02:56.460Z,70.09
2023-04-11T07:05:46.208Z,69.87
2023-04-11T07:08:36.941Z,69.90
2023-04-11T07:11:29.457Z,69.44
2023-04-11T07:14:18.715Z,68.88
2023-04-11T07:17:07.894Z,69.09
2023-04-11T07:19:57.469Z,68.77
2023-04-11T07:22:46.684Z,68.39
2023-04-11T07:25:39.340Z,68.10
2023-04-11T07:28:31.233Z,67.81
2023-04-11T07:31:22.234Z,67.82
2023-04-11T07:34:11.781Z,67.27
2023-04-11T07:37:01.347Z,67.16
2023-04-11T07:39:52.030Z,67.19
2023-04-11T07:42:43.286Z,66.81
2023-04-11T07:45:33.515Z,66.78
2023-04-11T07:48:23.151Z,66.27
2023-04-11T07:51:12.396Z,66.22
2023-04-11T07:54:01.615Z,65.48
2023-04-11T07:56:50.847Z,64.96
2023-04-11T07:59:42.543Z,63.97
2023-04-11T08:02:33.380Z,64.40
2023-04-11T08:05:23.105Z,64.25
2023-04-11T08:08:12.414Z,63.60
2023-04-11T08:11:01.628Z,62.02
2023-04-11T08:13:50.871Z,62.44
2023-04-11T08:16:41.691Z,61.97
2023-04-11T08:19:31.714Z,61.29
2023-04-11T08:22:20.924Z,60.98
2023-04-11T08:25:12.853Z,61.15
2023-04-11T08:28:02.559Z,59.80
2023-04-11T08:30:55.357Z,59.96
2023-04-11T08:33:46.129Z,60.45
2023-04-11T08:36:35.262Z,60.38
2023-04-11T08:39:24.527Z,59.73
2023-04-11T08:42:24.644Z,57.80
2023-04-11T08:45:14.644Z,57.11
2023-04-11T08:48:03.809Z,57.04
2023-04-11T08:50:54.463Z,57.05
2023-04-11T08:53:44.181Z,56.64
2023-04-11T08:56:35.175Z,56.96
2023-04-11T08:59:24.361Z,56.47
2023-04-11T09:02:13.689Z,56.04
2023-04-11T09:05:02.935Z,56.23
2023-04-11T09:07:53.607Z,56.11
2023-04-11T09:10:45.192Z,56.41
2023-04-11T09:13:34.828Z,56.25
2023-04-11T09:16:24.143Z,56.35
2023-04-11T09:19:25.602Z,56.55
2023-04-11T09:22:15.724Z,56.26
2023-04-11T09:25:07.314Z,56.18
2023-04-11T09:28:10.086Z,56.45
2023-04-11T09:30:59.687Z,57.20
2023-04-11T09:33:55.753Z,57.96
2023-04-11T09:36:56.392Z,57.95
2023-04-11T09:39:45.636Z,58.44
2023-04-11T09:42:36.694Z,58.42
2023-04-11T09:45:27.413Z,58.48
2023-04-11T09:48:17.883Z,58.52
2023-04-11T09:51:08.271Z,58.65
2023-04-11T09:53:58.611Z,58.82
2023-04-11T09:56:48.191Z,59.07
2023-04-11T09:59:41.402Z,58.32
2023-04-11T10:02:31.125Z,58.38
2023-04-11T10:05:22.201Z,58.53
2023-04-11T10:08:23.901Z,58.57
2023-04-11T10:11:18.584Z,58.61
2023-04-11T10:14:07.907Z,58.91
2023-04-11T10:17:20.522Z,58.95
2023-04-11T10:20:46.216Z,59.71
2023-04-11T10:24:08.647Z,60.01
2023-04-11T10:27:01.101Z,60.52
2023-04-11T10:29:53.821Z,60.46
2023-04-11T10:33:15.909Z,60.42
2023-04-11T10:36:10.359Z,60.50
2023-04-11T10:38:59.934Z,60.68
2023-04-11T10:41:49.180Z,59.31
2023-04-11T10:44:38.553Z,59.21
2023-04-11T10:47:29.043Z,58.83
2023-04-11T10:50:44.700Z,59.11
2023-04-11T10:53:38.590Z,59.65
2023-04-11T10:56:57.101Z,59.89
2023-04-11T11:00:09.509Z,59.99
2023-04-11T11:02:59.344Z,60.03
2023-04-11T11:05:59.843Z,62.12
2023-04-11T11:08:49.088Z,62.89
2023-04-11T11:11:38.285Z,62.43
2023-04-11T11:14:31.185Z,63.00
2023-04-11T11:17:20.802Z,63.96
2023-04-11T11:20:20.142Z,64.47
2023-04-11T11:23:12.253Z,65.19
2023-04-11T11:26:01.578Z,65.58
2023-04-11T11:28:50.917Z,66.49
2023-04-11T11:31:42.209Z,66.82
2023-04-11T11:34:33.471Z,67.67
2023-04-11T11:37:23.297Z,68.50
2023-04-11T11:40:14.615Z,68.34
2023-04-11T11:43:04.021Z,69.13
2023-04-11T11:46:10.056Z,69.16
2023-04-11T11:49:01.550Z,69.48
2023-04-11T11:51:51.016Z,69.70
2023-04-11T11:54:46.198Z,68.80
2023-04-11T11:57:37.515Z,68.64
2023-04-11T12:00:28.970Z,69.22
2023-04-11T12:03:22.891Z,68.56
2023-04-11T12:06:13.462Z,67.97
2023-04-11T12:09:09.435Z,68.05
2023-04-11T12:11:58.648Z,67.13
2023-04-11T12:14:55.630Z,67.22
2023-04-11T12:17:48.982Z,66.81
2023-04-11T12:20:38.229Z,66.40
2023-04-11T12:23:27.400Z,67.10
2023-04-11T12:26:17.803Z,67.06
2023-04-11T12:29:07.354Z,67.59
2023-04-11T12:31:58.051Z,67.84
2023-04-11T12:34:47.289Z,67.95
2023-04-11T12:37:36.732Z,67.91
2023-04-11T12:40:26.122Z,68.45
2023-04-11T12:43:15.601Z,68.26
2023-04-11T12:46:05.713Z,67.87
2023-04-11T12:48:56.479Z,67.79
2023-04-11T12:51:45.948Z,67.94
2023-04-11T12:54:35.471Z,67.34
2023-04-11T12:57:25.166Z,67.98
2023-04-11T13:00:16.746Z,68.20
2023-04-11T13:03:06.207Z,67.65
2023-04-11T13:05:57.123Z,67.73
2023-04-11T13:08:47.131Z,68.68
2023-04-11T13:11:36.443Z,68.70
2023-04-11T13:14:26.062Z,69.74
2023-04-11T13:17:15.490Z,69.82
2023-04-11T13:20:09.116Z,70.17
2023-04-11T13:22:59.958Z,70.99
2023-04-11T13:25:49.163Z,71.02
2023-04-11T13:28:39.030Z,71.25
2023-04-11T13:31:28.807Z,71.61
2023-04-11T13:34:18.198Z,71.68
2023-04-11T13:37:07.501Z,71.98
2023-04-11T13:39:58.311Z,72.60
2023-04-11T13:42:47.760Z,72.75
2023-04-11T13:45:37.102Z,73.30
2023-04-11T13:48:26.444Z,72.48
2023-04-11T13:51:15.979Z,71.96
2023-04-11T13:54:05.776Z,71.29
2023-04-11T13:56:56.544Z,71.00
2023-04-11T13:59:45.715Z,70.77
2023-04-11T14:02:35.085Z,68.69
2023-04-11T14:05:25.303Z,68.66
2023-04-11T14:08:15.015Z,69.46
2023-04-11T14:11:04.603Z,69.11
2023-04-11T14:13:55.584Z,69.36
2023-04-11T14:16:44.993Z,69.72
2023-04-11T14:19:34.325Z,70.74
2023-04-11T14:22:23.770Z,70.73
2023-04-11T14:25:15.823Z,70.70
2023-04-11T14:28:05.187Z,71.27
2023-04-11T14:30:57.023Z,71.25
2023-04-11T14:33:46.388Z,71.20
2023-04-11T14:36:35.648Z,71.16
2023-04-11T14:39:25.023Z,71.67
2023-04-11T14:42:14.260Z,71.82
2023-04-11T14:45:03.486Z,72.20
2023-04-11T14:47:54.401Z,72.43
2023-04-11T14:50:43.620Z,73.34
2023-04-11T14:53:32.820Z,73.15
2023-04-11T14:56:22.623Z,73.09
2023-04-11T14:59:11.928Z,72.96
2023-04-11T15:02:01.189Z,73.42
2023-04-11T15:04:53.485Z,73.40
2023-04-11T15:07:42.896Z,73.60
2023-04-11T15:10:32.388Z,72.93
2023-04-11T15:13:22.394Z,72.84
2023-04-11T15:16:12.260Z,73.37
2023-04-11T15:19:01.591Z,73.43
2023-04-11T15:21:52.176Z,73.35
2023-04-11T15:24:42.257Z,73.55
2023-04-11T15:27:31.484Z,74.01
2023-04-11T15:30:20.992Z,73.93
2023-04-11T15:33:10.295Z,73.73
2023-04-11T15:36:00.737Z,74.33
2023-04-11T15:38:51.553Z,74.66
2023-04-11T15:41:41.474Z,75.02
2023-04-11T15:44:30.875Z,74.63
2023-04-11T15:47:20.107Z,75.73
2023-04-11T15:50:10.157Z,76.18
2023-04-11T15:52:59.703Z,76.47
2023-04-11T15:55:51.450Z,76.24
2023-04-11T15:58:40.813Z,76.86
2023-04-11T16:01:30.160Z,77.04
2023-04-11T16:04:20.005Z,77.67
2023-04-11T16:07:09.516Z,77.17
2023-04-11T16:09:58.681Z,77.43
2023-04-11T16:12:49.348Z,77.46
2023-04-11T16:15:38.625Z,77.83
2023-04-11T16:18:27.866Z,77.61
2023-04-11T16:21:17.946Z,77.90
2023-04-11T16:24:07.450Z,78.68
2023-04-11T16:26:57.364Z,78.47
2023-04-11T16:29:48.026Z,78.91
2023-04-11T16:32:37.281Z,79.70
2023-04-11T16:35:26.561Z,79.41
2023-04-11T16:38:16.369Z,79.08
2023-04-11T16:41:06.091Z,79.99
2023-04-11T16:43:55.534Z,79.64
2023-04-11T16:46:46.362Z,80.02
2023-04-11T16:49:35.776Z,80.21
2023-04-11T16:52:25.078Z,81.06
2023-04-11T16:55:15.142Z,83.10
2023-04-11T16:58:06.317Z,84.04
2023-04-11T17:00:55.816Z,83.39
2023-04-11T17:03:47.198Z,84.54
2023-04-11T17:06:37.129Z,82.71
2023-04-11T17:09:26.332Z,82.50
2023-04-11T17:12:15.511Z,83.24
2023-04-11T17:15:07.108Z,83.64
2023-04-11T17:17:56.344Z,83.85
2023-04-11T17:20:47.574Z,83.27
2023-04-11T17:23:57.236Z,83.71
2023-04-11T17:26:46.581Z,84.31
2023-04-11T17:29:35.752Z,84.86
2023-04-11T17:32:25.086Z,85.74
2023-04-11T17:35:14.282Z,85.90
2023-04-11T17:38:04.887Z,86.57
2023-04-11T17:41:00.082Z,87.25
2023-04-11T17:43:52.432Z,87.38
2023-04-11T17:46:41.722Z,87.90
2023-04-11T17:49:30.923Z,87.79
2023-04-11T17:52:20.084Z,87.94
2023-04-11T17:55:13.063Z,87.64
2023-04-11T17:58:03.372Z,87.51
2023-04-11T18:00:56.613Z,87.79
2023-04-11T18:03:47.158Z,87.72
2023-04-11T18:06:36.456Z,88.01
2023-04-11T18:09:27.599Z,87.97
2023-04-11T18:12:18.215Z,88.23
2023-04-11T18:15:11.820Z,87.65
2023-04-11T18:18:01.132Z,87.58
2023-04-11T18:20:50.452Z,87.33
2023-04-11T18:23:40.267Z,87.36
2023-04-11T18:26:31.350Z,87.68
2023-04-11T18:29:21.923Z,88.01
2023-04-11T18:32:21.211Z,87.67
2023-04-11T18:35:13.034Z,87.46
2023-04-11T18:38:02.703Z,88.11
2023-04-11T18:40:54.928Z,87.36
2023-04-11T18:43:44.954Z,87.23
2023-04-11T18:46:35.741Z,87.30
2023-04-11T18:49:25.078Z,86.70
2023-04-11T18:52:14.282Z,86.59
2023-04-11T18:55:03.673Z,86.19
2023-04-11T18:57:55.901Z,85.47
2023-04-11T19:00:46.688Z,85.18
2023-04-11T19:03:37.578Z,84.39
2023-04-11T19:06:27.012Z,84.37
2023-04-11T19:09:17.078Z,83.92
2023-04-11T19:12:07.039Z,83.79
2023-04-11T19:14:56.258Z,83.29
2023-04-11T19:17:45.573Z,83.25
2023-04-11T19:20:38.843Z,83.33
2023-04-11T19:23:28.360Z,83.63
2023-04-11T19:26:18.373Z,83.63
2023-04-11T19:29:08.951Z,83.64
2023-04-11T19:31:58.327Z,82.97
2023-04-11T19:34:49.576Z,81.07
2023-04-11T19:37:41.064Z,80.37
2023-04-11T19:40:30.437Z,80.51
2023-04-11T19:43:19.814Z,80.52
2023-04-11T19:46:09.425Z,80.93
2023-04-11T19:48:58.685Z,80.59
2023-04-11T19:51:47.931Z,80.50
2023-04-11T19:54:39.298Z,80.78
2023-04-11T19:57:29.121Z,81.05
2023-04-11T20:00:19.515Z,81.20
2023-04-11T20:03:14.589Z,80.76
2023-04-11T20:06:05.744Z,81.01
2023-04-11T20:08:55.382Z,80.92
2023-04-11T20:11:47.749Z,80.82
2023-04-11T20:14:38.074Z,80.96
2023-04-11T20:17:27.399Z,80.71
2023-04-11T20:20:17.070Z,80.74
2023-04-11T20:23:07.237Z,80.03
2023-04-11T20:25:57.518Z,80.14
2023-04-11T20:28:49.819Z,79.76
2023-04-11T20:31:38.943Z,80.23
2023-04-11T20:34:28.138Z,80.40
2023-04-11T20:37:18.882Z,79.96
2023-04-11T20:40:10.353Z,78.96
2023-04-11T20:43:00.343Z,78.81
2023-04-11T20:45:51.446Z,78.43
2023-04-11T20:48:41.771Z,77.95
2023-04-11T20:51:31.383Z,77.66
2023-04-11T20:54:20.692Z,77.44
2023-04-11T20:57:10.045Z,77.55
2023-04-11T20:59:59.973Z,77.52
2023-04-11T21:02:52.348Z,77.43
2023-04-11T21:05:46.740Z,76.69
2023-04-11T21:08:37.593Z,76.60
2023-04-11T21:11:27.479Z,75.95
2023-04-11T21:14:17.033Z,75.14
2023-04-11T21:17:07.483Z,75.62
2023-04-11T21:19:58.127Z,76.84
2023-04-11T21:22:48.321Z,76.92
2023-04-11T21:25:38.970Z,77.67
2023-04-11T21:28:28.371Z,78.25
2023-04-11T21:31:17.683Z,77.81
2023-04-11T21:34:06.899Z,77.87
2023-04-11T21:36:58.868Z,77.75
2023-04-11T21:39:48.534Z,77.48
2023-04-11T21:42:37.791Z,77.02
2023-04-11T21:45:27.493Z,76.79
2023-04-11T21:48:17.318Z,76.84
2023-04-11T21:51:07.785Z,76.74
2023-04-11T21:53:58.822Z,75.94
2023-04-11T21:56:48.663Z,76.22
2023-04-11T21:59:38.708Z,76.80
2023-04-11T22:02:28.168Z,76.41
2023-04-11T22:05:18.549Z,76.67
2023-04-11T22:08:15.047Z,77.14
2023-04-11T22:11:10.105Z,78.14
2023-04-11T22:14:00.981Z,77.01
2023-04-11T22:16:50.289Z,76.77
2023-04-11T22:19:42.335Z,76.59
2023-04-11T22:22:32.401Z,76.07
2023-04-11T22:25:22.565Z,76.45
2023-04-11T22:28:18.339Z,76.47
2023-04-11T22:31:09.588Z,76.43
2023-04-11T22:33:59.278Z,75.98
2023-04-11T22:36:48.724Z,75.61
2023-04-11T22:39:37.996Z,74.97
2023-04-11T22:42:27.245Z,74.33
2023-04-11T22:45:18.208Z,74.50
2023-04-11T22:48:07.874Z,74.26
2023-04-11T22:50:59.142Z,73.21
2023-04-11T22:53:48.354Z,72.85
2023-04-11T22:56:37.629Z,72.78
2023-04-11T22:59:27.886Z,72.97
2023-04-11T23:02:18.473Z,73.64
2023-04-11T23:05:09.814Z,73.96
2023-04-11T23:07:58.967Z,73.18
2023-04-11T23:10:48.187Z,73.30
2023-04-11T23:13:37.646Z,72.41
2023-04-11T23:16:27.381Z,72.73
2023-04-11T23:19:18.953Z,72.72
2023-04-11T23:22:08.440Z,73.67
2023-04-11T23:24:57.851Z,73.51
2023-04-11T23:27:47.621Z,73.82
2023-04-11T23:30:37.528Z,74.71
2023-04-11T23:33:26.887Z,74.79
2023-04-11T23:36:17.596Z,75.23
2023-04-11T23:39:06.777Z,75.22
2023-04-11T23:41:57.211Z,75.09
2023-04-11T23:44:46.592Z,75.26
2023-04-11T23:47:36.125Z,75.46
2023-04-11T23:50:25.575Z,76.56
2023-04-11T23:53:16.845Z,76.63
2023-04-11T23:56:07.064Z,76.86
2023-04-11T23:58:56.349Z,77.08
